Terminal Aerodrome Forecast
Issued by NWS

Current Version | Previous Version | Graphics & Text | Print | Product List | Glossary On
Versions: 1 2 3 4 5 6 7 8 9 10 11 12 13 14 15 16 17 18 19 20 21 22 23
000
FTUS41 KRLX 302228 AAA
TAFCKB
TAF AMD
KCKB 302228Z 3022/0118 30015G35KT 2SM TSRA SCT035CB BKN060
     FM302315 31015G23KT 4SM SHRA VCTS BKN035CB
     FM010100 19004KT P6SM BKN035
     FM010600 00000KT 5SM BR BKN035
     FM010900 VRB03KT 5SM BR BKN015
     FM011300 22004KT P6SM SCT020=

USA.gov is the U.S. government's official web portal to all federal, state and local government web resources and services.